McGregor, Georgia
Current Conditions -  °F | °C
As of 1:15 PM on Tuesday 21 Oct 2014 (Local Time) from KCWV Reporting Station
Clear Clear  
Wind Chill: 79°   Ceiling: Unl
Heat Index: 79°   Visibility: 10mi
Dew Point: 54°   Wind: 7mph
Humidity: 42%   Direction: 290°WNW
Pressure: 29.96"   Gusts: NA
Location:  32.2794°N, 81.623°W
Report Text: KCWV 211715Z AUTO 29006KT 10SM CLR 26/12 A2996 RMK AO2
Loading
Personal Weather Stations






























Interactive Weather Map
Tropical Storm Tracking
New forecast layout! Learn more

10-Day Weather Forecast

Advertisements
Track Severe Weather on mobile